63.0°F
Current conditions from King Hill
Updated every 5 minutes
 
  Thursday August 21, 2014

Station Historical Data
Daily Summary for May 11, 2011 Units:  Both    English   Metric
« Previous Day
Next Day »
Daily Weekly Monthly Yearly Custom
  High: Low: Average:
Temperature: 67.6 °F /  19.8 °C 42.5 °F /  5.8 °C 55 °F /  12.8 °C
Dew Point: 48.1 °F /  8.9 °C 38.5 °F /  3.6 °C 42.7 °F /  5.9 °C
Humidity: 87% 43% 65%
Wind Speed: 7.0mph /  11.3km/h - 2.6mph /  4.2km/h
Wind Gust: 14.0mph /  22.5km/h - -
Wind- - ENE
Pressure: 30.16 in /  1021.2 hPa 30.08 in /  1018.5 hPa -
Precipitation: 0.00 in /  0 mm    
Historical Graphs
 
 
Tabular Data for May 11, 2011
Time Temperature Dew Point Pressure Wind Wind Speed Wind Gust Humidity Daily Rainfall
00:04 49.8 °F /  9.9 °C 40.4 °F /  4.7 °C 30.11in /  1019.5hPa NNE 1.0mph /  1.6km/h 3.0mph /  4.8km/h 70% 0.00in /  0mm
00:09 49.2 °F /  9.6 °C 40.2 °F /  4.6 °C 30.11in /  1019.5hPa Calm   3.0mph /  4.8km/h 71% 0.00in /  0mm
00:14 48.7 °F /  9.3 °C 40.1 °F /  4.5 °C 30.11in /  1019.5hPa Calm   2.0mph /  3.2km/h 72% 0.00in /  0mm
00:19 48.2 °F /  9 °C 40.0 °F /  4.4 °C 30.11in /  1019.5hPa Calm   2.0mph /  3.2km/h 73% 0.00in /  0mm
00:24 47.8 °F /  8.8 °C 39.9 °F /  4.4 °C 30.11in /  1019.5hPa Calm   1.0mph /  1.6km/h 74% 0.00in /  0mm
00:29 47.4 °F /  8.6 °C 39.9 °F /  4.4 °C 30.11in /  1019.5hPa Calm   1.0mph /  1.6km/h 75% 0.00in /  0mm
00:34 47.0 °F /  8.3 °C 39.8 °F /  4.3 °C 30.12in /  1019.9hPa Calm     76% 0.00in /  0mm
00:39 47.0 °F /  8.3 °C 40.2 °F /  4.6 °C 30.12in /  1019.9hPa Calm   1.0mph /  1.6km/h 77% 0.00in /  0mm
00:44 46.9 °F /  8.3 °C 40.1 °F /  4.5 °C 30.12in /  1019.9hPa Calm   1.0mph /  1.6km/h 77% 0.00in /  0mm
00:49 46.8 °F /  8.2 °C 40.0 °F /  4.4 °C 30.11in /  1019.5hPa Calm   3.0mph /  4.8km/h 77% 0.00in /  0mm
00:54 46.6 °F /  8.1 °C 40.1 °F /  4.5 °C 30.11in /  1019.5hPa Calm   3.0mph /  4.8km/h 78% 0.00in /  0mm
00:59 46.3 °F /  7.9 °C 39.8 °F /  4.3 °C 30.11in /  1019.5hPa Calm     78% 0.00in /  0mm
01:04 46.1 °F /  7.8 °C 40.0 °F /  4.4 °C 30.11in /  1019.5hPa Calm   1.0mph /  1.6km/h 79% 0.00in /  0mm
01:09 46.1 °F /  7.8 °C 39.6 °F /  4.2 °C 30.11in /  1019.5hPa Calm   3.0mph /  4.8km/h 78% 0.00in /  0mm
01:14 45.8 °F /  7.7 °C 39.3 °F /  4.1 °C 30.11in /  1019.5hPa Calm   3.0mph /  4.8km/h 78% 0.00in /  0mm
01:19 45.5 °F /  7.5 °C 39.4 °F /  4.1 °C 30.11in /  1019.5hPa Calm   3.0mph /  4.8km/h 79% 0.00in /  0mm
01:24 45.0 °F /  7.2 °C 39.2 °F /  4 °C 30.11in /  1019.5hPa NNE 1.0mph /  1.6km/h 3.0mph /  4.8km/h 80% 0.00in /  0mm
01:29 44.9 °F /  7.2 °C 39.1 °F /  3.9 °C 30.11in /  1019.5hPa Calm   3.0mph /  4.8km/h 80% 0.00in /  0mm
01:34 44.9 °F /  7.2 °C 39.4 °F /  4.1 °C 30.11in /  1019.5hPa Calm   5.0mph /  8km/h 81% 0.00in /  0mm
01:39 45.0 °F /  7.2 °C 39.5 °F /  4.2 °C 30.10in /  1019.2hPa Calm   5.0mph /  8km/h 81% 0.00in /  0mm
01:44 45.5 °F /  7.5 °C 39.7 °F /  4.3 °C 30.10in /  1019.2hPa Calm   2.0mph /  3.2km/h 80% 0.00in /  0mm
01:49 46.0 °F /  7.8 °C 39.9 °F /  4.4 °C 30.11in /  1019.5hPa Calm   2.0mph /  3.2km/h 79% 0.00in /  0mm
01:55 46.5 °F /  8.1 °C 40.3 °F /  4.6 °C 30.10in /  1019.2hPa Calm   1.0mph /  1.6km/h 79% 0.00in /  0mm
02:04 46.9 °F /  8.3 °C 40.1 °F /  4.5 °C 30.11in /  1019.5hPa Calm   2.0mph /  3.2km/h 77% 0.00in /  0mm
02:09 46.9 °F /  8.3 °C 40.1 °F /  4.5 °C 30.10in /  1019.2hPa Calm   1.0mph /  1.6km/h 77% 0.00in /  0mm
02:14 46.7 °F /  8.2 °C 39.9 °F /  4.4 °C 30.10in /  1019.2hPa Calm     77% 0.00in /  0mm
02:19 46.3 °F /  7.9 °C 39.5 °F /  4.2 °C 30.10in /  1019.2hPa Calm   1.0mph /  1.6km/h 77% 0.00in /  0mm
02:24 46.0 °F /  7.8 °C 39.5 °F /  4.2 °C 30.10in /  1019.2hPa Calm   2.0mph /  3.2km/h 78% 0.00in /  0mm
02:30 45.6 °F /  7.6 °C 39.5 °F /  4.2 °C 30.10in /  1019.2hPa Calm   2.0mph /  3.2km/h 79% 0.00in /  0mm
02:35 45.3 °F /  7.4 °C 39.5 °F /  4.2 °C 30.10in /  1019.2hPa Calm   2.0mph /  3.2km/h 80% 0.00in /  0mm
02:39 45.0 °F /  7.2 °C 38.9 °F /  3.8 °C 30.10in /  1019.2hPa Calm   1.0mph /  1.6km/h 79% 0.00in /  0mm
02:44 44.7 °F /  7.1 °C 38.9 °F /  3.8 °C 30.09in /  1018.8hPa Calm   2.0mph /  3.2km/h 80% 0.00in /  0mm
02:49 44.6 °F /  7 °C 39.1 °F /  3.9 °C 30.09in /  1018.8hPa Calm   2.0mph /  3.2km/h 81% 0.00in /  0mm
02:54 44.5 °F /  6.9 °C 39.0 °F /  3.9 °C 30.09in /  1018.8hPa Calm   2.0mph /  3.2km/h 81% 0.00in /  0mm
02:59 44.3 °F /  6.8 °C 39.2 °F /  4 °C 30.09in /  1018.8hPa Calm   2.0mph /  3.2km/h 82% 0.00in /  0mm
03:04 44.3 °F /  6.8 °C 39.2 °F /  4 °C 30.09in /  1018.8hPa Calm   1.0mph /  1.6km/h 82% 0.00in /  0mm
03:09 44.4 °F /  6.9 °C 39.3 °F /  4.1 °C 30.09in /  1018.8hPa Calm   1.0mph /  1.6km/h 82% 0.00in /  0mm
03:14 44.3 °F /  6.8 °C 39.2 °F /  4 °C 30.09in /  1018.8hPa Calm   2.0mph /  3.2km/h 82% 0.00in /  0mm
03:19 44.2 °F /  6.8 °C 39.1 °F /  3.9 °C 30.09in /  1018.8hPa Calm   2.0mph /  3.2km/h 82% 0.00in /  0mm
03:24 44.1 °F /  6.7 °C 39.3 °F /  4.1 °C 30.09in /  1018.8hPa Calm   2.0mph /  3.2km/h 83% 0.00in /  0mm
03:29 43.8 °F /  6.6 °C 38.7 °F /  3.7 °C 30.09in /  1018.8hPa Calm     82% 0.00in /  0mm
03:34 43.8 °F /  6.6 °C 39.0 °F /  3.9 °C 30.09in /  1018.8hPa Calm   1.0mph /  1.6km/h 83% 0.00in /  0mm
03:39 44.0 °F /  6.7 °C 39.2 °F /  4 °C 30.09in /  1018.8hPa Calm   5.0mph /  8km/h 83% 0.00in /  0mm
03:44 44.2 °F /  6.8 °C 39.4 °F /  4.1 °C 30.09in /  1018.8hPa Calm   5.0mph /  8km/h 83% 0.00in /  0mm
03:49 44.4 °F /  6.9 °C 39.6 °F /  4.2 °C 30.09in /  1018.8hPa Calm   5.0mph /  8km/h 83% 0.00in /  0mm
03:54 44.4 °F /  6.9 °C 39.3 °F /  4.1 °C 30.10in /  1019.2hPa Calm   2.0mph /  3.2km/h 82% 0.00in /  0mm
03:59 44.5 °F /  6.9 °C 39.4 °F /  4.1 °C 30.10in /  1019.2hPa Calm   2.0mph /  3.2km/h 82% 0.00in /  0mm
04:04 44.6 °F /  7 °C 39.4 °F /  4.1 °C 30.10in /  1019.2hPa Calm   1.0mph /  1.6km/h 82% 0.00in /  0mm
04:09 44.3 °F /  6.8 °C 39.2 °F /  4 °C 30.10in /  1019.2hPa Calm   1.0mph /  1.6km/h 82% 0.00in /  0mm
04:14 44.1 °F /  6.7 °C 39.3 °F /  4.1 °C 30.10in /  1019.2hPa Calm     83% 0.00in /  0mm
04:19 44.0 °F /  6.7 °C 39.2 °F /  4 °C 30.10in /  1019.2hPa Calm   1.0mph /  1.6km/h 83% 0.00in /  0mm
04:24 43.7 °F /  6.5 °C 38.9 °F /  3.8 °C 30.10in /  1019.2hPa Calm   1.0mph /  1.6km/h 83% 0.00in /  0mm
04:29 43.6 °F /  6.4 °C 39.1 °F /  3.9 °C 30.10in /  1019.2hPa Calm   1.0mph /  1.6km/h 84% 0.00in /  0mm
04:34 43.6 °F /  6.4 °C 39.1 °F /  3.9 °C 30.10in /  1019.2hPa Calm     84% 0.00in /  0mm
04:39 43.3 °F /  6.3 °C 38.8 °F /  3.8 °C 30.10in /  1019.2hPa Calm     84% 0.00in /  0mm
04:44 43.3 °F /  6.3 °C 39.1 °F /  3.9 °C 30.11in /  1019.5hPa Calm     85% 0.00in /  0mm
04:49 43.2 °F /  6.2 °C 39.0 °F /  3.9 °C 30.11in /  1019.5hPa Calm     85% 0.00in /  0mm
04:54 43.1 °F /  6.2 °C 38.9 °F /  3.8 °C 30.11in /  1019.5hPa Calm     85% 0.00in /  0mm
04:59 43.0 °F /  6.1 °C 38.8 °F /  3.8 °C 30.11in /  1019.5hPa Calm     85% 0.00in /  0mm
05:04 42.9 °F /  6.1 °C 39.0 °F /  3.9 °C 30.11in /  1019.5hPa Calm     86% 0.00in /  0mm
05:09 42.8 °F /  6 °C 38.6 °F /  3.7 °C 30.11in /  1019.5hPa Calm   1.0mph /  1.6km/h 85% 0.00in /  0mm
05:14 42.7 °F /  5.9 °C 38.8 °F /  3.8 °C 30.11in /  1019.5hPa Calm   1.0mph /  1.6km/h 86% 0.00in /  0mm
05:19 42.7 °F /  5.9 °C 38.8 °F /  3.8 °C 30.11in /  1019.5hPa Calm   3.0mph /  4.8km/h 86% 0.00in /  0mm
05:24 43.1 °F /  6.2 °C 39.2 °F /  4 °C 30.11in /  1019.5hPa Calm   3.0mph /  4.8km/h 86% 0.00in /  0mm
05:29 43.1 °F /  6.2 °C 38.9 °F /  3.8 °C 30.12in /  1019.9hPa Calm   2.0mph /  3.2km/h 85% 0.00in /  0mm
05:34 43.1 °F /  6.2 °C 38.9 °F /  3.8 °C 30.12in /  1019.9hPa Calm   2.0mph /  3.2km/h 85% 0.00in /  0mm
05:39 42.9 °F /  6.1 °C 38.7 °F /  3.7 °C 30.12in /  1019.9hPa Calm   2.0mph /  3.2km/h 85% 0.00in /  0mm
05:44 43.0 °F /  6.1 °C 39.1 °F /  3.9 °C 30.12in /  1019.9hPa Calm   2.0mph /  3.2km/h 86% 0.00in /  0mm
05:49 42.9 °F /  6.1 °C 38.7 °F /  3.7 °C 30.12in /  1019.9hPa Calm     85% 0.00in /  0mm
05:54 42.7 °F /  5.9 °C 38.5 °F /  3.6 °C 30.13in /  1020.2hPa Calm   1.0mph /  1.6km/h 85% 0.00in /  0mm
05:59 42.7 °F /  5.9 °C 38.8 °F /  3.8 °C 30.13in /  1020.2hPa Calm   2.0mph /  3.2km/h 86% 0.00in /  0mm
06:04 42.6 °F /  5.9 °C 38.7 °F /  3.7 °C 30.13in /  1020.2hPa Calm   2.0mph /  3.2km/h 86% 0.00in /  0mm
06:09 42.5 °F /  5.8 °C 38.6 °F /  3.7 °C 30.13in /  1020.2hPa Calm     86% 0.00in /  0mm
06:14 42.7 °F /  5.9 °C 39.1 °F /  3.9 °C 30.13in /  1020.2hPa Calm     87% 0.00in /  0mm
06:19 42.7 °F /  5.9 °C 39.1 °F /  3.9 °C 30.13in /  1020.2hPa Calm     87% 0.00in /  0mm
06:24 42.7 °F /  5.9 °C 39.1 °F /  3.9 °C 30.14in /  1020.5hPa Calm     87% 0.00in /  0mm
06:29 43.0 °F /  6.1 °C 39.4 °F /  4.1 °C 30.14in /  1020.5hPa Calm     87% 0.00in /  0mm
06:34 43.2 °F /  6.2 °C 39.6 °F /  4.2 °C 30.14in /  1020.5hPa Calm   1.0mph /  1.6km/h 87% 0.00in /  0mm
06:39 43.1 °F /  6.2 °C 39.5 °F /  4.2 °C 30.14in /  1020.5hPa Calm   1.0mph /  1.6km/h 87% 0.00in /  0mm
06:45 43.2 °F /  6.2 °C 39.6 °F /  4.2 °C 30.14in /  1020.5hPa Calm   2.0mph /  3.2km/h 87% 0.00in /  0mm
06:54 44.1 °F /  6.7 °C 40.5 °F /  4.7 °C 30.15in /  1020.9hPa Calm   4.0mph /  6.4km/h 87% 0.00in /  0mm
06:59 44.9 °F /  7.2 °C 41.0 °F /  5 °C 30.15in /  1020.9hPa Calm   4.0mph /  6.4km/h 86% 0.00in /  0mm
07:04 45.6 °F /  7.6 °C 41.0 °F /  5 °C 30.15in /  1020.9hPa Calm   1.0mph /  1.6km/h 84% 0.00in /  0mm
07:09 46.4 °F /  8 °C 41.2 °F /  5.1 °C 30.15in /  1020.9hPa SE 3.0mph /  4.8km/h 5.0mph /  8km/h 82% 0.00in /  0mm
07:14 47.3 °F /  8.5 °C 41.4 °F /  5.2 °C 30.15in /  1020.9hPa NNE 2.0mph /  3.2km/h 8.0mph /  12.9km/h 80% 0.00in /  0mm
07:19 48.0 °F /  8.9 °C 41.8 °F /  5.4 °C 30.15in /  1020.9hPa Calm   8.0mph /  12.9km/h 79% 0.00in /  0mm
07:24 48.7 °F /  9.3 °C 41.8 °F /  5.4 °C 30.15in /  1020.9hPa NE 1.0mph /  1.6km/h 4.0mph /  6.4km/h 77% 0.00in /  0mm
07:29 49.5 °F /  9.7 °C 42.6 °F /  5.9 °C 30.15in /  1020.9hPa NE 1.0mph /  1.6km/h 4.0mph /  6.4km/h 77% 0.00in /  0mm
07:34 50.3 °F /  10.2 °C 42.3 °F /  5.7 °C 30.15in /  1020.9hPa NE 3.0mph /  4.8km/h 8.0mph /  12.9km/h 74% 0.00in /  0mm
07:39 50.6 °F /  10.3 °C 42.3 °F /  5.7 °C 30.15in /  1020.9hPa NE 2.0mph /  3.2km/h 8.0mph /  12.9km/h 73% 0.00in /  0mm
07:44 50.8 °F /  10.4 °C 42.5 °F /  5.8 °C 30.15in /  1020.9hPa NNE 3.0mph /  4.8km/h 8.0mph /  12.9km/h 73% 0.00in /  0mm
07:49 51.2 °F /  10.7 °C 42.5 °F /  5.8 °C 30.15in /  1020.9hPa NE 2.0mph /  3.2km/h 8.0mph /  12.9km/h 72% 0.00in /  0mm
07:54 51.7 °F /  10.9 °C 43.0 °F /  6.1 °C 30.15in /  1020.9hPa North 1.0mph /  1.6km/h 8.0mph /  12.9km/h 72% 0.00in /  0mm
07:59 52.1 °F /  11.2 °C 43.4 °F /  6.3 °C 30.15in /  1020.9hPa NNE 2.0mph /  3.2km/h 7.0mph /  11.3km/h 72% 0.00in /  0mm
08:04 52.4 °F /  11.3 °C 43.3 °F /  6.3 °C 30.15in /  1020.9hPa Calm   8.0mph /  12.9km/h 71% 0.00in /  0mm
08:09 52.7 °F /  11.5 °C 42.8 °F /  6 °C 30.15in /  1020.9hPa NE 3.0mph /  4.8km/h 10.0mph /  16.1km/h 69% 0.00in /  0mm
08:14 53.0 °F /  11.7 °C 43.1 °F /  6.2 °C 30.15in /  1020.9hPa NE 2.0mph /  3.2km/h 10.0mph /  16.1km/h 69% 0.00in /  0mm
08:19 53.4 °F /  11.9 °C 43.1 °F /  6.2 °C 30.15in /  1020.9hPa NE 3.0mph /  4.8km/h 8.0mph /  12.9km/h 68% 0.00in /  0mm
08:24 53.4 °F /  11.9 °C 42.7 °F /  5.9 °C 30.15in /  1020.9hPa ENE 2.0mph /  3.2km/h 9.0mph /  14.5km/h 67% 0.00in /  0mm
08:29 53.3 °F /  11.8 °C 42.6 °F /  5.9 °C 30.15in /  1020.9hPa NE 4.0mph /  6.4km/h 10.0mph /  16.1km/h 67% 0.00in /  0mm
08:34 53.7 °F /  12.1 °C 43.8 °F /  6.6 °C 30.15in /  1020.9hPa Calm   10.0mph /  16.1km/h 69% 0.00in /  0mm
08:39 54.3 °F /  12.4 °C 43.6 °F /  6.4 °C 30.15in /  1020.9hPa NE 1.0mph /  1.6km/h 7.0mph /  11.3km/h 67% 0.00in /  0mm
08:44 54.5 °F /  12.5 °C 43.4 °F /  6.3 °C 30.15in /  1020.9hPa ENE 3.0mph /  4.8km/h 7.0mph /  11.3km/h 66% 0.00in /  0mm
08:49 54.7 °F /  12.6 °C 43.6 °F /  6.4 °C 30.15in /  1020.9hPa NNE 1.0mph /  1.6km/h 7.0mph /  11.3km/h 66% 0.00in /  0mm
08:54 55.2 °F /  12.9 °C 44.8 °F /  7.1 °C 30.15in /  1020.9hPa NE 1.0mph /  1.6km/h 9.0mph /  14.5km/h 68% 0.00in /  0mm
08:59 55.3 °F /  12.9 °C 43.7 °F /  6.5 °C 30.15in /  1020.9hPa NE 6.0mph /  9.7km/h 11.0mph /  17.7km/h 65% 0.00in /  0mm
09:04 55.2 °F /  12.9 °C 43.2 °F /  6.2 °C 30.15in /  1020.9hPa NNE 7.0mph /  11.3km/h 13.0mph /  20.9km/h 64% 0.00in /  0mm
09:09 55.2 °F /  12.9 °C 43.6 °F /  6.4 °C 30.15in /  1020.9hPa NNE 4.0mph /  6.4km/h 13.0mph /  20.9km/h 65% 0.00in /  0mm
09:14 55.7 °F /  13.2 °C 43.7 °F /  6.5 °C 30.15in /  1020.9hPa NE 3.0mph /  4.8km/h 9.0mph /  14.5km/h 64% 0.00in /  0mm
09:19 56.0 °F /  13.3 °C 44.0 °F /  6.7 °C 30.15in /  1020.9hPa East 3.0mph /  4.8km/h 9.0mph /  14.5km/h 64% 0.00in /  0mm
09:24 56.3 °F /  13.5 °C 43.5 °F /  6.4 °C 30.15in /  1020.9hPa NE 4.0mph /  6.4km/h 12.0mph /  19.3km/h 62% 0.00in /  0mm
09:29 56.5 °F /  13.6 °C 44.9 °F /  7.2 °C 30.14in /  1020.5hPa Calm   12.0mph /  19.3km/h 65% 0.00in /  0mm
09:34 57.0 °F /  13.9 °C 44.5 °F /  6.9 °C 30.15in /  1020.9hPa NNE 3.0mph /  4.8km/h 8.0mph /  12.9km/h 63% 0.00in /  0mm
09:39 57.1 °F /  13.9 °C 44.2 °F /  6.8 °C 30.14in /  1020.5hPa NNE 4.0mph /  6.4km/h 9.0mph /  14.5km/h 62% 0.00in /  0mm
09:44 57.3 °F /  14.1 °C 43.5 °F /  6.4 °C 30.14in /  1020.5hPa NNE 4.0mph /  6.4km/h 10.0mph /  16.1km/h 60% 0.00in /  0mm
09:49 57.4 °F /  14.1 °C 44.1 °F /  6.7 °C 30.15in /  1020.9hPa NNE 4.0mph /  6.4km/h 10.0mph /  16.1km/h 61% 0.00in /  0mm
09:54 57.7 °F /  14.3 °C 44.4 °F /  6.9 °C 30.15in /  1020.9hPa NNE 1.0mph /  1.6km/h 11.0mph /  17.7km/h 61% 0.00in /  0mm
09:59 58.1 °F /  14.5 °C 44.3 °F /  6.8 °C 30.15in /  1020.9hPa NE 4.0mph /  6.4km/h 11.0mph /  17.7km/h 60% 0.00in /  0mm
10:04 58.5 °F /  14.7 °C 44.7 °F /  7.1 °C 30.15in /  1020.9hPa ENE 1.0mph /  1.6km/h 9.0mph /  14.5km/h 60% 0.00in /  0mm
10:09 58.7 °F /  14.8 °C 44.4 °F /  6.9 °C 30.14in /  1020.5hPa NNE 6.0mph /  9.7km/h 10.0mph /  16.1km/h 59% 0.00in /  0mm
10:14 59.0 °F /  15 °C 44.3 °F /  6.8 °C 30.14in /  1020.5hPa NNE 4.0mph /  6.4km/h 10.0mph /  16.1km/h 58% 0.00in /  0mm
10:19 59.0 °F /  15 °C 45.1 °F /  7.3 °C 30.15in /  1020.9hPa North 2.0mph /  3.2km/h 11.0mph /  17.7km/h 60% 0.00in /  0mm
10:24 59.4 °F /  15.2 °C 45.5 °F /  7.5 °C 30.15in /  1020.9hPa ENE 4.0mph /  6.4km/h 11.0mph /  17.7km/h 60% 0.00in /  0mm
10:29 59.1 °F /  15.1 °C 44.8 °F /  7.1 °C 30.15in /  1020.9hPa NNE 6.0mph /  9.7km/h 14.0mph /  22.5km/h 59% 0.00in /  0mm
10:34 59.0 °F /  15 °C 44.3 °F /  6.8 °C 30.16in /  1021.2hPa NNE 5.0mph /  8km/h 14.0mph /  22.5km/h 58% 0.00in /  0mm
10:39 59.0 °F /  15 °C 44.3 °F /  6.8 °C 30.16in /  1021.2hPa NE 5.0mph /  8km/h 12.0mph /  19.3km/h 58% 0.00in /  0mm
10:44 59.0 °F /  15 °C 46.0 °F /  7.8 °C 30.16in /  1021.2hPa ENE 2.0mph /  3.2km/h 12.0mph /  19.3km/h 62% 0.00in /  0mm
10:49 59.3 °F /  15.2 °C 45.4 °F /  7.4 °C 30.16in /  1021.2hPa ENE 3.0mph /  4.8km/h 12.0mph /  19.3km/h 60% 0.00in /  0mm
10:54 59.7 °F /  15.4 °C 44.9 °F /  7.2 °C 30.16in /  1021.2hPa ENE 2.0mph /  3.2km/h 11.0mph /  17.7km/h 58% 0.00in /  0mm
10:59 60.7 °F /  15.9 °C 46.7 °F /  8.2 °C 30.16in /  1021.2hPa Calm   10.0mph /  16.1km/h 60% 0.00in /  0mm
11:04 61.5 °F /  16.4 °C 45.2 °F /  7.3 °C 30.15in /  1020.9hPa ENE 3.0mph /  4.8km/h 9.0mph /  14.5km/h 55% 0.00in /  0mm
11:09 61.2 °F /  16.2 °C 44.9 °F /  7.2 °C 30.16in /  1021.2hPa NE 6.0mph /  9.7km/h 10.0mph /  16.1km/h 55% 0.00in /  0mm
11:14 61.3 °F /  16.3 °C 46.0 °F /  7.8 °C 30.16in /  1021.2hPa NNE 1.0mph /  1.6km/h 10.0mph /  16.1km/h 57% 0.00in /  0mm
11:19 61.3 °F /  16.3 °C 45.0 °F /  7.2 °C 30.15in /  1020.9hPa ENE 4.0mph /  6.4km/h 10.0mph /  16.1km/h 55% 0.00in /  0mm
11:24 61.3 °F /  16.3 °C 46.4 °F /  8 °C 30.15in /  1020.9hPa NE 4.0mph /  6.4km/h 10.0mph /  16.1km/h 58% 0.00in /  0mm
11:29 61.7 °F /  16.5 °C 45.4 °F /  7.4 °C 30.15in /  1020.9hPa NNE 6.0mph /  9.7km/h 10.0mph /  16.1km/h 55% 0.00in /  0mm
11:34 62.5 °F /  16.9 °C 48.0 °F /  8.9 °C 30.15in /  1020.9hPa NNE 1.0mph /  1.6km/h 10.0mph /  16.1km/h 59% 0.00in /  0mm
11:39 62.9 °F /  17.2 °C 45.5 °F /  7.5 °C 30.15in /  1020.9hPa ESE 3.0mph /  4.8km/h 7.0mph /  11.3km/h 53% 0.00in /  0mm
11:45 62.5 °F /  16.9 °C 45.6 °F /  7.6 °C 30.14in /  1020.5hPa NE 3.0mph /  4.8km/h 10.0mph /  16.1km/h 54% 0.00in /  0mm
11:54 62.4 °F /  16.9 °C 45.6 °F /  7.6 °C 30.14in /  1020.5hPa NNE 3.0mph /  4.8km/h 7.0mph /  11.3km/h 54% 0.00in /  0mm
11:59 61.6 °F /  16.4 °C 46.2 °F /  7.9 °C 30.14in /  1020.5hPa NNE 1.0mph /  1.6km/h 7.0mph /  11.3km/h 57% 0.00in /  0mm
12:04 61.5 °F /  16.4 °C 46.6 °F /  8.1 °C 30.14in /  1020.5hPa NNW 3.0mph /  4.8km/h 11.0mph /  17.7km/h 58% 0.00in /  0mm
12:09 61.2 °F /  16.2 °C 46.3 °F /  7.9 °C 30.14in /  1020.5hPa NNW 4.0mph /  6.4km/h 11.0mph /  17.7km/h 58% 0.00in /  0mm
12:14 61.8 °F /  16.6 °C 47.8 °F /  8.8 °C 30.14in /  1020.5hPa NE 3.0mph /  4.8km/h 11.0mph /  17.7km/h 60% 0.00in /  0mm
12:19 62.2 °F /  16.8 °C 46.8 °F /  8.2 °C 30.14in /  1020.5hPa North 2.0mph /  3.2km/h 12.0mph /  19.3km/h 57% 0.00in /  0mm
12:24 62.1 °F /  16.7 °C 47.2 °F /  8.4 °C 30.14in /  1020.5hPa North 3.0mph /  4.8km/h 12.0mph /  19.3km/h 58% 0.00in /  0mm
12:29 62.1 °F /  16.7 °C 46.2 °F /  7.9 °C 30.13in /  1020.2hPa NNW 1.0mph /  1.6km/h 9.0mph /  14.5km/h 56% 0.00in /  0mm
12:34 61.9 °F /  16.6 °C 46.0 °F /  7.8 °C 30.13in /  1020.2hPa NNE 5.0mph /  8km/h 12.0mph /  19.3km/h 56% 0.00in /  0mm
12:39 61.6 °F /  16.4 °C 46.2 °F /  7.9 °C 30.13in /  1020.2hPa Calm   12.0mph /  19.3km/h 57% 0.00in /  0mm
12:44 61.6 °F /  16.4 °C 46.2 °F /  7.9 °C 30.13in /  1020.2hPa North 3.0mph /  4.8km/h 9.0mph /  14.5km/h 57% 0.00in /  0mm
12:49 61.8 °F /  16.6 °C 46.9 °F /  8.3 °C 30.13in /  1020.2hPa NNE 2.0mph /  3.2km/h 9.0mph /  14.5km/h 58% 0.00in /  0mm
12:54 62.2 °F /  16.8 °C 46.8 °F /  8.2 °C 30.13in /  1020.2hPa Calm   9.0mph /  14.5km/h 57% 0.00in /  0mm
12:59 62.6 °F /  17 °C 47.2 °F /  8.4 °C 30.13in /  1020.2hPa North 1.0mph /  1.6km/h 7.0mph /  11.3km/h 57% 0.00in /  0mm
13:04 62.4 °F /  16.9 °C 45.6 °F /  7.6 °C 30.13in /  1020.2hPa NNE 3.0mph /  4.8km/h 7.0mph /  11.3km/h 54% 0.00in /  0mm
13:09 62.7 °F /  17.1 °C 47.3 °F /  8.5 °C 30.13in /  1020.2hPa East 1.0mph /  1.6km/h 7.0mph /  11.3km/h 57% 0.00in /  0mm
13:14 63.7 °F /  17.6 °C 47.2 °F /  8.4 °C 30.12in /  1019.9hPa North 3.0mph /  4.8km/h 10.0mph /  16.1km/h 55% 0.00in /  0mm
13:19 63.5 °F /  17.5 °C 46.6 °F /  8.1 °C 30.12in /  1019.9hPa Calm   10.0mph /  16.1km/h 54% 0.00in /  0mm
13:24 63.2 °F /  17.3 °C 46.8 °F /  8.2 °C 30.12in /  1019.9hPa NNE 2.0mph /  3.2km/h 8.0mph /  12.9km/h 55% 0.00in /  0mm
13:29 62.9 °F /  17.2 °C 46.0 °F /  7.8 °C 30.12in /  1019.9hPa NE 6.0mph /  9.7km/h 12.0mph /  19.3km/h 54% 0.00in /  0mm
13:34 62.7 °F /  17.1 °C 45.8 °F /  7.7 °C 30.12in /  1019.9hPa NE 6.0mph /  9.7km/h 12.0mph /  19.3km/h 54% 0.00in /  0mm
13:39 63.0 °F /  17.2 °C 47.1 °F /  8.4 °C 30.11in /  1019.5hPa NNE 2.0mph /  3.2km/h 9.0mph /  14.5km/h 56% 0.00in /  0mm
13:44 63.6 °F /  17.6 °C 46.7 °F /  8.2 °C 30.12in /  1019.9hPa East 3.0mph /  4.8km/h 12.0mph /  19.3km/h 54% 0.00in /  0mm
13:49 63.6 °F /  17.6 °C 47.6 °F /  8.7 °C 30.11in /  1019.5hPa East 2.0mph /  3.2km/h 12.0mph /  19.3km/h 56% 0.00in /  0mm
13:54 63.3 °F /  17.4 °C 46.4 °F /  8 °C 30.11in /  1019.5hPa ENE 6.0mph /  9.7km/h 12.0mph /  19.3km/h 54% 0.00in /  0mm
13:59 63.2 °F /  17.3 °C 47.7 °F /  8.7 °C 30.11in /  1019.5hPa NNE 2.0mph /  3.2km/h 10.0mph /  16.1km/h 57% 0.00in /  0mm
14:04 64.7 °F /  18.2 °C 46.7 °F /  8.2 °C 30.11in /  1019.5hPa ENE 1.0mph /  1.6km/h 6.0mph /  9.7km/h 52% 0.00in /  0mm
14:09 64.4 °F /  18 °C 46.4 °F /  8 °C 30.11in /  1019.5hPa Calm   7.0mph /  11.3km/h 52% 0.00in /  0mm
14:14 64.0 °F /  17.8 °C 47.0 °F /  8.3 °C 30.11in /  1019.5hPa Calm   7.0mph /  11.3km/h 54% 0.00in /  0mm
14:19 64.8 °F /  18.2 °C 47.3 °F /  8.5 °C 30.11in /  1019.5hPa NNE 1.0mph /  1.6km/h 9.0mph /  14.5km/h 53% 0.00in /  0mm
14:24 64.5 °F /  18.1 °C 46.0 °F /  7.8 °C 30.11in /  1019.5hPa ENE 1.0mph /  1.6km/h 9.0mph /  14.5km/h 51% 0.00in /  0mm
14:29 64.2 °F /  17.9 °C 47.2 °F /  8.4 °C 30.11in /  1019.5hPa Calm   8.0mph /  12.9km/h 54% 0.00in /  0mm
14:34 64.5 °F /  18.1 °C 46.5 °F /  8.1 °C 30.10in /  1019.2hPa Calm   6.0mph /  9.7km/h 52% 0.00in /  0mm
14:39 64.5 °F /  18.1 °C 47.0 °F /  8.3 °C 30.10in /  1019.2hPa ENE 4.0mph /  6.4km/h 8.0mph /  12.9km/h 53% 0.00in /  0mm
14:44 65.2 °F /  18.4 °C 46.6 °F /  8.1 °C 30.10in /  1019.2hPa NNE 2.0mph /  3.2km/h 9.0mph /  14.5km/h 51% 0.00in /  0mm
14:49 65.8 °F /  18.8 °C 47.2 °F /  8.4 °C 30.11in /  1019.5hPa SE 1.0mph /  1.6km/h 9.0mph /  14.5km/h 51% 0.00in /  0mm
14:54 64.9 °F /  18.3 °C 45.3 °F /  7.4 °C 30.11in /  1019.5hPa East 3.0mph /  4.8km/h 9.0mph /  14.5km/h 49% 0.00in /  0mm
14:59 64.8 °F /  18.2 °C 47.3 °F /  8.5 °C 30.11in /  1019.5hPa NNE 2.0mph /  3.2km/h 8.0mph /  12.9km/h 53% 0.00in /  0mm
15:04 65.0 °F /  18.3 °C 46.4 °F /  8 °C 30.10in /  1019.2hPa NNW 4.0mph /  6.4km/h 10.0mph /  16.1km/h 51% 0.00in /  0mm
15:09 65.1 °F /  18.4 °C 48.1 °F /  8.9 °C 30.10in /  1019.2hPa North 2.0mph /  3.2km/h 10.0mph /  16.1km/h 54% 0.00in /  0mm
15:14 66.2 °F /  19 °C 47.0 °F /  8.3 °C 30.10in /  1019.2hPa NE 1.0mph /  1.6km/h 7.0mph /  11.3km/h 50% 0.00in /  0mm
15:19 66.3 °F /  19.1 °C 46.6 °F /  8.1 °C 30.10in /  1019.2hPa ENE 5.0mph /  8km/h 9.0mph /  14.5km/h 49% 0.00in /  0mm
15:24 65.9 °F /  18.8 °C 46.8 °F /  8.2 °C 30.09in /  1018.8hPa NE 3.0mph /  4.8km/h 9.0mph /  14.5km/h 50% 0.00in /  0mm
15:29 65.5 °F /  18.6 °C 46.4 °F /  8 °C 30.09in /  1018.8hPa NNE 1.0mph /  1.6km/h 9.0mph /  14.5km/h 50% 0.00in /  0mm
15:34 65.9 °F /  18.8 °C 47.8 °F /  8.8 °C 30.09in /  1018.8hPa ENE 1.0mph /  1.6km/h 9.0mph /  14.5km/h 52% 0.00in /  0mm
15:39 66.0 °F /  18.9 °C 45.8 °F /  7.7 °C 30.09in /  1018.8hPa NE 2.0mph /  3.2km/h 9.0mph /  14.5km/h 48% 0.00in /  0mm
15:44 65.6 °F /  18.7 °C 46.5 °F /  8.1 °C 30.09in /  1018.8hPa NNE 1.0mph /  1.6km/h 9.0mph /  14.5km/h 50% 0.00in /  0mm
15:49 66.0 °F /  18.9 °C 47.9 °F /  8.8 °C 30.08in /  1018.5hPa Calm   9.0mph /  14.5km/h 52% 0.00in /  0mm
15:55 67.4 °F /  19.7 °C 46.5 °F /  8.1 °C 30.08in /  1018.5hPa Calm   7.0mph /  11.3km/h 47% 0.00in /  0mm
16:04 67.0 °F /  19.4 °C 46.1 °F /  7.8 °C 30.08in /  1018.5hPa North 3.0mph /  4.8km/h 9.0mph /  14.5km/h 47% 0.00in /  0mm
16:09 66.9 °F /  19.4 °C 46.6 °F /  8.1 °C 30.08in /  1018.5hPa NE 3.0mph /  4.8km/h 9.0mph /  14.5km/h 48% 0.00in /  0mm
16:14 66.1 °F /  18.9 °C 45.9 °F /  7.7 °C 30.08in /  1018.5hPa ESE 1.0mph /  1.6km/h 8.0mph /  12.9km/h 48% 0.00in /  0mm
16:19 66.4 °F /  19.1 °C 46.7 °F /  8.2 °C 30.08in /  1018.5hPa Calm   7.0mph /  11.3km/h 49% 0.00in /  0mm
16:24 67.1 °F /  19.5 °C 47.9 °F /  8.8 °C 30.08in /  1018.5hPa North 1.0mph /  1.6km/h 9.0mph /  14.5km/h 50% 0.00in /  0mm
16:29 67.2 °F /  19.6 °C 45.2 °F /  7.3 °C 30.08in /  1018.5hPa NE 2.0mph /  3.2km/h 9.0mph /  14.5km/h 45% 0.00in /  0mm
16:34 66.5 °F /  19.2 °C 46.8 °F /  8.2 °C 30.08in /  1018.5hPa Calm   6.0mph /  9.7km/h 49% 0.00in /  0mm
16:39 66.4 °F /  19.1 °C 45.6 °F /  7.6 °C 30.08in /  1018.5hPa NE 1.0mph /  1.6km/h 6.0mph /  9.7km/h 47% 0.00in /  0mm
16:44 66.1 °F /  18.9 °C 44.7 °F /  7.1 °C 30.08in /  1018.5hPa NNE 2.0mph /  3.2km/h 9.0mph /  14.5km/h 46% 0.00in /  0mm
16:49 65.7 °F /  18.7 °C 44.9 °F /  7.2 °C 30.08in /  1018.5hPa NE 1.0mph /  1.6km/h 9.0mph /  14.5km/h 47% 0.00in /  0mm
16:54 66.0 °F /  18.9 °C 44.1 °F /  6.7 °C 30.08in /  1018.5hPa North 3.0mph /  4.8km/h 6.0mph /  9.7km/h 45% 0.00in /  0mm
17:04 67.6 °F /  19.8 °C 44.9 °F /  7.2 °C 30.08in /  1018.5hPa North 1.0mph /  1.6km/h 5.0mph /  8km/h 44% 0.00in /  0mm
17:09 67.5 °F /  19.7 °C 44.8 °F /  7.1 °C 30.08in /  1018.5hPa NNE 2.0mph /  3.2km/h 7.0mph /  11.3km/h 44% 0.00in /  0mm
17:14 67.0 °F /  19.4 °C 44.4 °F /  6.9 °C 30.08in /  1018.5hPa NE 1.0mph /  1.6km/h 8.0mph /  12.9km/h 44% 0.00in /  0mm
17:19 66.6 °F /  19.2 °C 45.2 °F /  7.3 °C 30.08in /  1018.5hPa North 2.0mph /  3.2km/h 9.0mph /  14.5km/h 46% 0.00in /  0mm
17:24 66.7 °F /  19.3 °C 47.0 °F /  8.3 °C 30.08in /  1018.5hPa North 1.0mph /  1.6km/h 9.0mph /  14.5km/h 49% 0.00in /  0mm
17:29 67.1 °F /  19.5 °C 45.6 °F /  7.6 °C 30.08in /  1018.5hPa NNW 2.0mph /  3.2km/h 9.0mph /  14.5km/h 46% 0.00in /  0mm
17:34 67.4 °F /  19.7 °C 44.8 °F /  7.1 °C 30.09in /  1018.8hPa North 3.0mph /  4.8km/h 9.0mph /  14.5km/h 44% 0.00in /  0mm
17:39 67.0 °F /  19.4 °C 43.8 °F /  6.6 °C 30.09in /  1018.8hPa NNE 4.0mph /  6.4km/h 9.0mph /  14.5km/h 43% 0.00in /  0mm
17:44 66.5 °F /  19.2 °C 44.5 °F /  6.9 °C 30.09in /  1018.8hPa NE 1.0mph /  1.6km/h 9.0mph /  14.5km/h 45% 0.00in /  0mm
17:49 66.2 °F /  19 °C 44.3 °F /  6.8 °C 30.09in /  1018.8hPa NNE 2.0mph /  3.2km/h 5.0mph /  8km/h 45% 0.00in /  0mm
17:54 66.4 °F /  19.1 °C 44.4 °F /  6.9 °C 30.09in /  1018.8hPa NNE 4.0mph /  6.4km/h 9.0mph /  14.5km/h 45% 0.00in /  0mm
17:59 66.5 °F /  19.2 °C 43.3 °F /  6.3 °C 30.09in /  1018.8hPa NNE 6.0mph /  9.7km/h 12.0mph /  19.3km/h 43% 0.00in /  0mm
18:04 66.0 °F /  18.9 °C 44.1 °F /  6.7 °C 30.08in /  1018.5hPa NE 1.0mph /  1.6km/h 12.0mph /  19.3km/h 45% 0.00in /  0mm
18:09 65.6 °F /  18.7 °C 44.8 °F /  7.1 °C 30.08in /  1018.5hPa NE 1.0mph /  1.6km/h 9.0mph /  14.5km/h 47% 0.00in /  0mm
18:14 65.2 °F /  18.4 °C 43.9 °F /  6.6 °C 30.08in /  1018.5hPa NNE 5.0mph /  8km/h 8.0mph /  12.9km/h 46% 0.00in /  0mm
18:19 65.0 °F /  18.3 °C 44.3 °F /  6.8 °C 30.08in /  1018.5hPa NE 3.0mph /  4.8km/h 8.0mph /  12.9km/h 47% 0.00in /  0mm
18:24 65.3 °F /  18.5 °C 45.1 °F /  7.3 °C 30.08in /  1018.5hPa NE 1.0mph /  1.6km/h 8.0mph /  12.9km/h 48% 0.00in /  0mm
18:29 65.8 °F /  18.8 °C 44.5 °F /  6.9 °C 30.08in /  1018.5hPa NE 1.0mph /  1.6km/h 6.0mph /  9.7km/h 46% 0.00in /  0mm
18:34 65.9 °F /  18.8 °C 44.6 °F /  7 °C 30.08in /  1018.5hPa NE 1.0mph /  1.6km/h 5.0mph /  8km/h 46% 0.00in /  0mm
18:44 65.6 °F /  18.7 °C 43.7 °F /  6.5 °C 30.08in /  1018.5hPa NE 4.0mph /  6.4km/h 7.0mph /  11.3km/h 45% 0.00in /  0mm
18:50 64.9 °F /  18.3 °C 44.2 °F /  6.8 °C 30.08in /  1018.5hPa NNE 4.0mph /  6.4km/h 11.0mph /  17.7km/h 47% 0.00in /  0mm
18:55 64.5 °F /  18.1 °C 43.3 °F /  6.3 °C 30.08in /  1018.5hPa Calm   11.0mph /  17.7km/h 46% 0.00in /  0mm
19:00 64.5 °F /  18.1 °C 44.9 °F /  7.2 °C 30.08in /  1018.5hPa NNE 2.0mph /  3.2km/h 8.0mph /  12.9km/h 49% 0.00in /  0mm
19:05 64.7 °F /  18.2 °C 44.0 °F /  6.7 °C 30.08in /  1018.5hPa NNE 2.0mph /  3.2km/h 8.0mph /  12.9km/h 47% 0.00in /  0mm
19:09 64.7 °F /  18.2 °C 43.5 °F /  6.4 °C 30.08in /  1018.5hPa Calm   7.0mph /  11.3km/h 46% 0.00in /  0mm
19:14 64.5 °F /  18.1 °C 43.8 °F /  6.6 °C 30.09in /  1018.8hPa NNE 3.0mph /  4.8km/h 6.0mph /  9.7km/h 47% 0.00in /  0mm
19:20 64.2 °F /  17.9 °C 43.0 °F /  6.1 °C 30.08in /  1018.5hPa NNE 3.0mph /  4.8km/h 8.0mph /  12.9km/h 46% 0.00in /  0mm
19:25 63.9 °F /  17.7 °C 42.7 °F /  5.9 °C 30.08in /  1018.5hPa Calm   8.0mph /  12.9km/h 46% 0.00in /  0mm
19:30 63.6 °F /  17.6 °C 43.6 °F /  6.4 °C 30.09in /  1018.8hPa NNE 2.0mph /  3.2km/h 6.0mph /  9.7km/h 48% 0.00in /  0mm
19:35 63.2 °F /  17.3 °C 42.7 °F /  5.9 °C 30.09in /  1018.8hPa NNE 2.0mph /  3.2km/h 6.0mph /  9.7km/h 47% 0.00in /  0mm
19:45 62.6 °F /  17 °C 42.1 °F /  5.6 °C 30.09in /  1018.8hPa NNE 3.0mph /  4.8km/h 6.0mph /  9.7km/h 47% 0.00in /  0mm
19:50 62.2 °F /  16.8 °C 42.3 °F /  5.7 °C 30.09in /  1018.8hPa NNE 1.0mph /  1.6km/h 6.0mph /  9.7km/h 48% 0.00in /  0mm
19:55 61.7 °F /  16.5 °C 42.4 °F /  5.8 °C 30.09in /  1018.8hPa NE 1.0mph /  1.6km/h 8.0mph /  12.9km/h 49% 0.00in /  0mm
20:00 61.2 °F /  16.2 °C 42.9 °F /  6.1 °C 30.09in /  1018.8hPa Calm   8.0mph /  12.9km/h 51% 0.00in /  0mm
20:05 60.3 °F /  15.7 °C 43.1 °F /  6.2 °C 30.09in /  1018.8hPa Calm   2.0mph /  3.2km/h 53% 0.00in /  0mm
20:09 59.0 °F /  15 °C 43.3 °F /  6.3 °C 30.09in /  1018.8hPa Calm   2.0mph /  3.2km/h 56% 0.00in /  0mm
20:15 57.8 °F /  14.3 °C 43.1 °F /  6.2 °C 30.09in /  1018.8hPa Calm     58% 0.00in /  0mm
20:20 56.8 °F /  13.8 °C 43.1 °F /  6.2 °C 30.09in /  1018.8hPa Calm     60% 0.00in /  0mm
20:24 56.0 °F /  13.3 °C 42.3 °F /  5.7 °C 30.09in /  1018.8hPa Calm   1.0mph /  1.6km/h 60% 0.00in /  0mm
20:30 55.5 °F /  13.1 °C 42.3 °F /  5.7 °C 30.09in /  1018.8hPa Calm   1.0mph /  1.6km/h 61% 0.00in /  0mm
20:35 55.2 °F /  12.9 °C 42.4 °F /  5.8 °C 30.10in /  1019.2hPa Calm     62% 0.00in /  0mm
20:40 54.8 °F /  12.7 °C 42.0 °F /  5.6 °C 30.09in /  1018.8hPa Calm     62% 0.00in /  0mm
20:45 54.4 °F /  12.4 °C 42.1 °F /  5.6 °C 30.09in /  1018.8hPa Calm   1.0mph /  1.6km/h 63% 0.00in /  0mm
20:49 54.3 °F /  12.4 °C 42.0 °F /  5.6 °C 30.09in /  1018.8hPa Calm   2.0mph /  3.2km/h 63% 0.00in /  0mm
20:55 54.2 °F /  12.3 °C 42.3 °F /  5.7 °C 30.09in /  1018.8hPa Calm   2.0mph /  3.2km/h 64% 0.00in /  0mm
21:00 53.9 °F /  12.2 °C 42.0 °F /  5.6 °C 30.09in /  1018.8hPa Calm     64% 0.00in /  0mm
21:05 53.7 °F /  12.1 °C 41.8 °F /  5.4 °C 30.09in /  1018.8hPa Calm   2.0mph /  3.2km/h 64% 0.00in /  0mm
21:10 53.7 °F /  12.1 °C 41.8 °F /  5.4 °C 30.09in /  1018.8hPa Calm   2.0mph /  3.2km/h 64% 0.00in /  0mm
21:15 53.6 °F /  12 °C 41.7 °F /  5.4 °C 30.09in /  1018.8hPa Calm     64% 0.00in /  0mm
21:20 53.4 °F /  11.9 °C 41.5 °F /  5.3 °C 30.09in /  1018.8hPa Calm     64% 0.00in /  0mm
21:25 53.0 °F /  11.7 °C 41.6 °F /  5.3 °C 30.09in /  1018.8hPa Calm     65% 0.00in /  0mm
21:35 52.6 °F /  11.4 °C 41.6 °F /  5.3 °C 30.09in /  1018.8hPa Calm     66% 0.00in /  0mm
21:40 52.2 °F /  11.2 °C 40.8 °F /  4.9 °C 30.09in /  1018.8hPa Calm     65% 0.00in /  0mm
21:45 51.9 °F /  11.1 °C 41.3 °F /  5.2 °C 30.09in /  1018.8hPa Calm     67% 0.00in /  0mm
21:50 51.6 °F /  10.9 °C 40.6 °F /  4.8 °C 30.09in /  1018.8hPa Calm     66% 0.00in /  0mm
21:55 51.5 °F /  10.8 °C 40.9 °F /  4.9 °C 30.09in /  1018.8hPa Calm     67% 0.00in /  0mm
22:00 51.2 °F /  10.7 °C 40.6 °F /  4.8 °C 30.09in /  1018.8hPa Calm     67% 0.00in /  0mm
22:05 51.1 °F /  10.6 °C 40.9 °F /  4.9 °C 30.09in /  1018.8hPa Calm     68% 0.00in /  0mm
22:10 50.6 °F /  10.3 °C 40.8 °F /  4.9 °C 30.09in /  1018.8hPa Calm     69% 0.00in /  0mm
22:15 50.3 °F /  10.2 °C 40.1 °F /  4.5 °C 30.09in /  1018.8hPa Calm     68% 0.00in /  0mm
22:20 50.1 °F /  10.1 °C 40.3 °F /  4.6 °C 30.09in /  1018.8hPa Calm     69% 0.00in /  0mm
22:25 49.9 °F /  9.9 °C 40.1 °F /  4.5 °C 30.09in /  1018.8hPa Calm     69% 0.00in /  0mm
22:30 50.0 °F /  10 °C 40.6 °F /  4.8 °C 30.09in /  1018.8hPa Calm     70% 0.00in /  0mm
22:35 50.2 °F /  10.1 °C 40.4 °F /  4.7 °C 30.09in /  1018.8hPa Calm   2.0mph /  3.2km/h 69% 0.00in /  0mm
22:45 50.5 °F /  10.3 °C 40.3 °F /  4.6 °C 30.08in /  1018.5hPa Calm   2.0mph /  3.2km/h 68% 0.00in /  0mm
22:50 50.7 °F /  10.4 °C 40.5 °F /  4.7 °C 30.08in /  1018.5hPa Calm   2.0mph /  3.2km/h 68% 0.00in /  0mm
22:55 50.7 °F /  10.4 °C 40.5 °F /  4.7 °C 30.08in /  1018.5hPa Calm   2.0mph /  3.2km/h 68% 0.00in /  0mm
23:00 50.6 °F /  10.3 °C 40.1 °F /  4.5 °C 30.08in /  1018.5hPa Calm   2.0mph /  3.2km/h 67% 0.00in /  0mm
23:05 50.5 °F /  10.3 °C 40.0 °F /  4.4 °C 30.08in /  1018.5hPa Calm   4.0mph /  6.4km/h 67% 0.00in /  0mm
23:10 50.2 °F /  10.1 °C 39.3 °F /  4.1 °C 30.08in /  1018.5hPa Calm   4.0mph /  6.4km/h 66% 0.00in /  0mm
23:15 50.1 °F /  10.1 °C 40.0 °F /  4.4 °C 30.08in /  1018.5hPa Calm   1.0mph /  1.6km/h 68% 0.00in /  0mm
23:20 49.8 °F /  9.9 °C 39.3 °F /  4.1 °C 30.08in /  1018.5hPa Calm   1.0mph /  1.6km/h 67% 0.00in /  0mm
23:25 49.7 °F /  9.8 °C 39.2 °F /  4 °C 30.08in /  1018.5hPa Calm     67% 0.00in /  0mm
23:30 49.9 °F /  9.9 °C 39.4 °F /  4.1 °C 30.08in /  1018.5hPa Calm     67% 0.00in /  0mm
23:35 49.8 °F /  9.9 °C 38.9 °F /  3.8 °C 30.08in /  1018.5hPa Calm     66% 0.00in /  0mm
23:40 50.0 °F /  10 °C 39.1 °F /  3.9 °C 30.08in /  1018.5hPa Calm     66% 0.00in /  0mm
23:45 50.4 °F /  10.2 °C 39.1 °F /  3.9 °C 30.08in /  1018.5hPa Calm     65% 0.00in /  0mm
23:50 51.0 °F /  10.6 °C 38.9 °F /  3.8 °C 30.08in /  1018.5hPa Calm   2.0mph /  3.2km/h 63% 0.00in /  0mm
23:55 51.5 °F /  10.8 °C 38.9 °F /  3.8 °C 30.08in /  1018.5hPa Calm   2.0mph /  3.2km/h 62% 0.00in /  0mm
Westford Weather
Compliments of Weather Underground

 
 
Current Radar Loop:

Copyright © WestfordWeather.net 2007-2014. All rights reserved.